sensor_id;sensor_type;location;lat;lon;timestamp;temperature;humidity
58469;DHT22;44257;44.804;10.220;2022-12-18T00:01:37;5.10;99.90
58469;DHT22;44257;44.804;10.220;2022-12-18T00:04:04;5.10;99.90
58469;DHT22;44257;44.804;10.220;2022-12-18T00:06:31;5.10;99.90
58469;DHT22;44257;44.804;10.220;2022-12-18T00:08:59;5.00;99.90
58469;DHT22;44257;44.804;10.220;2022-12-18T00:11:28;5.00;99.90
58469;DHT22;44257;44.804;10.220;2022-12-18T00:13:56;5.00;99.90
58469;DHT22;44257;44.804;10.220;2022-12-18T00:16:23;5.00;99.90
58469;DHT22;44257;44.804;10.220;2022-12-18T00:18:52;5.00;99.90
58469;DHT22;44257;44.804;10.220;2022-12-18T00:21:19;5.00;99.90
58469;DHT22;44257;44.804;10.220;2022-12-18T00:23:46;5.00;99.90
58469;DHT22;44257;44.804;10.220;2022-12-18T00:26:15;5.00;99.90
58469;DHT22;44257;44.804;10.220;2022-12-18T00:28:42;5.10;99.90
58469;DHT22;44257;44.804;10.220;2022-12-18T00:31:13;5.10;99.90
58469;DHT22;44257;44.804;10.220;2022-12-18T00:33:40;5.10;99.90
58469;DHT22;44257;44.804;10.220;2022-12-18T00:36:14;5.10;99.90
58469;DHT22;44257;44.804;10.220;2022-12-18T00:38:41;5.00;99.90
58469;DHT22;44257;44.804;10.220;2022-12-18T00:41:10;5.00;99.90
58469;DHT22;44257;44.804;10.220;2022-12-18T00:43:37;5.00;99.90
58469;DHT22;44257;44.804;10.220;2022-12-18T00:46:04;5.00;99.90
58469;DHT22;44257;44.804;10.220;2022-12-18T00:48:31;5.00;99.90
58469;DHT22;44257;44.804;10.220;2022-12-18T00:50:57;5.00;99.90
58469;DHT22;44257;44.804;10.220;2022-12-18T00:53:23;5.00;99.90
58469;DHT22;44257;44.804;10.220;2022-12-18T00:55:49;5.00;99.90
58469;DHT22;44257;44.804;10.220;2022-12-18T00:58:16;5.10;99.90
58469;DHT22;44257;44.804;10.220;2022-12-18T01:00:42;5.10;99.90
58469;DHT22;44257;44.804;10.220;2022-12-18T01:03:13;5.10;99.90
58469;DHT22;44257;44.804;10.220;2022-12-18T01:05:40;5.10;99.90
58469;DHT22;44257;44.804;10.220;2022-12-18T01:08:06;5.10;99.90
58469;DHT22;44257;44.804;10.220;2022-12-18T01:10:32;5.10;99.90
58469;DHT22;44257;44.804;10.220;2022-12-18T01:12:58;5.10;99.90
58469;DHT22;44257;44.804;10.220;2022-12-18T01:15:24;5.10;99.90
58469;DHT22;44257;44.804;10.220;2022-12-18T01:17:52;5.10;99.90
58469;DHT22;44257;44.804;10.220;2022-12-18T01:20:18;5.10;99.90
58469;DHT22;44257;44.804;10.220;2022-12-18T01:22:44;5.00;99.90
58469;DHT22;44257;44.804;10.220;2022-12-18T01:25:10;5.00;99.90
58469;DHT22;44257;44.804;10.220;2022-12-18T01:27:36;5.00;99.90
58469;DHT22;44257;44.804;10.220;2022-12-18T01:30:03;5.00;99.90
58469;DHT22;44257;44.804;10.220;2022-12-18T01:32:31;5.00;99.90
58469;DHT22;44257;44.804;10.220;2022-12-18T01:34:57;5.00;99.90
58469;DHT22;44257;44.804;10.220;2022-12-18T01:37:22;4.90;99.90
58469;DHT22;44257;44.804;10.220;2022-12-18T01:39:48;4.80;99.90
58469;DHT22;44257;44.804;10.220;2022-12-18T01:42:15;4.80;99.90
58469;DHT22;44257;44.804;10.220;2022-12-18T01:52:50;5.00;99.90
58469;DHT22;44257;44.804;10.220;2022-12-18T01:55:19;5.10;99.90
58469;DHT22;44257;44.804;10.220;2022-12-18T01:57:46;5.10;99.90
58469;DHT22;44257;44.804;10.220;2022-12-18T02:00:15;5.00;99.90
58469;DHT22;44257;44.804;10.220;2022-12-18T02:02:44;5.00;99.90
58469;DHT22;44257;44.804;10.220;2022-12-18T02:05:27;5.00;99.90
58469;DHT22;44257;44.804;10.220;2022-12-18T02:16:28;4.90;99.90
58469;DHT22;44257;44.804;10.220;2022-12-18T02:18:59;4.80;99.90
58469;DHT22;44257;44.804;10.220;2022-12-18T02:26:50;4.70;99.90
58469;DHT22;44257;44.804;10.220;2022-12-18T02:29:27;4.60;99.90
58469;DHT22;44257;44.804;10.220;2022-12-18T02:31:57;4.60;99.90
58469;DHT22;44257;44.804;10.220;2022-12-18T02:34:28;4.50;99.90
58469;DHT22;44257;44.804;10.220;2022-12-18T02:36:57;4.50;99.90
58469;DHT22;44257;44.804;10.220;2022-12-18T02:39:25;4.40;99.90
58469;DHT22;44257;44.804;10.220;2022-12-18T02:42:02;4.40;99.90
58469;DHT22;44257;44.804;10.220;2022-12-18T02:44:41;4.30;99.90
58469;DHT22;44257;44.804;10.220;2022-12-18T02:47:10;4.20;99.90
58469;DHT22;44257;44.804;10.220;2022-12-18T02:55:13;4.20;99.90
58469;DHT22;44257;44.804;10.220;2022-12-18T02:58:01;4.20;99.90
58469;DHT22;44257;44.804;10.220;2022-12-18T03:00:41;4.20;99.90
58469;DHT22;44257;44.804;10.220;2022-12-18T03:03:11;4.10;99.90
58469;DHT22;44257;44.804;10.220;2022-12-18T03:06:06;4.10;99.90
58469;DHT22;44257;44.804;10.220;2022-12-18T03:08:42;4.10;99.90
58469;DHT22;44257;44.804;10.220;2022-12-18T03:11:12;4.10;99.90
58469;DHT22;44257;44.804;10.220;2022-12-18T03:13:40;4.10;99.90
58469;DHT22;44257;44.804;10.220;2022-12-18T03:16:11;4.10;99.90
58469;DHT22;44257;44.804;10.220;2022-12-18T03:18:49;4.10;99.90
58469;DHT22;44257;44.804;10.220;2022-12-18T03:21:20;4.10;99.90
58469;DHT22;44257;44.804;10.220;2022-12-18T03:23:50;4.10;99.90
58469;DHT22;44257;44.804;10.220;2022-12-18T03:26:22;4.10;99.90
58469;DHT22;44257;44.804;10.220;2022-12-18T03:29:22;4.10;99.90
58469;DHT22;44257;44.804;10.220;2022-12-18T03:31:54;4.10;99.90
58469;DHT22;44257;44.804;10.220;2022-12-18T03:34:24;4.10;99.90
58469;DHT22;44257;44.804;10.220;2022-12-18T03:36:54;4.10;99.90
58469;DHT22;44257;44.804;10.220;2022-12-18T03:39:22;4.10;99.90
58469;DHT22;44257;44.804;10.220;2022-12-18T03:41:59;4.20;99.90
58469;DHT22;44257;44.804;10.220;2022-12-18T03:47:31;4.20;99.90
58469;DHT22;44257;44.804;10.220;2022-12-18T03:50:13;4.20;99.90
58469;DHT22;44257;44.804;10.220;2022-12-18T03:52:58;4.20;99.90
58469;DHT22;44257;44.804;10.220;2022-12-18T03:55:29;4.10;99.90
58469;DHT22;44257;44.804;10.220;2022-12-18T03:58:02;4.10;99.90
58469;DHT22;44257;44.804;10.220;2022-12-18T04:00:39;4.10;99.90
58469;DHT22;44257;44.804;10.220;2022-12-18T04:03:08;4.20;99.90
58469;DHT22;44257;44.804;10.220;2022-12-18T04:05:42;4.20;99.90
58469;DHT22;44257;44.804;10.220;2022-12-18T04:08:09;4.20;99.90
58469;DHT22;44257;44.804;10.220;2022-12-18T04:10:38;4.20;99.90
58469;DHT22;44257;44.804;10.220;2022-12-18T04:13:04;4.20;99.90
58469;DHT22;44257;44.804;10.220;2022-12-18T04:15:33;4.20;99.90
58469;DHT22;44257;44.804;10.220;2022-12-18T04:18:00;4.20;99.90
58469;DHT22;44257;44.804;10.220;2022-12-18T04:20:34;4.20;99.90
58469;DHT22;44257;44.804;10.220;2022-12-18T04:23:02;4.30;99.90
58469;DHT22;44257;44.804;10.220;2022-12-18T04:25:28;4.30;99.90
58469;DHT22;44257;44.804;10.220;2022-12-18T04:28:07;4.30;99.90
58469;DHT22;44257;44.804;10.220;2022-12-18T04:30:34;4.30;99.90
58469;DHT22;44257;44.804;10.220;2022-12-18T04:33:00;4.40;99.90
58469;DHT22;44257;44.804;10.220;2022-12-18T04:35:28;4.40;99.90
58469;DHT22;44257;44.804;10.220;2022-12-18T04:37:54;4.50;99.90
58469;DHT22;44257;44.804;10.220;2022-12-18T04:40:20;4.60;99.90
58469;DHT22;44257;44.804;10.220;2022-12-18T04:42:47;4.60;99.90
58469;DHT22;44257;44.804;10.220;2022-12-18T04:45:13;4.50;99.90
58469;DHT22;44257;44.804;10.220;2022-12-18T04:47:39;4.50;99.90
58469;DHT22;44257;44.804;10.220;2022-12-18T04:50:05;4.50;99.90
58469;DHT22;44257;44.804;10.220;2022-12-18T04:52:31;4.50;99.90
58469;DHT22;44257;44.804;10.220;2022-12-18T04:54:57;4.60;99.90
58469;DHT22;44257;44.804;10.220;2022-12-18T04:57:22;4.50;99.90
58469;DHT22;44257;44.804;10.220;2022-12-18T04:59:48;4.60;99.90
58469;DHT22;44257;44.804;10.220;2022-12-18T05:02:14;4.50;99.90
58469;DHT22;44257;44.804;10.220;2022-12-18T05:04:40;4.50;99.90
58469;DHT22;44257;44.804;10.220;2022-12-18T05:07:05;4.60;99.90
58469;DHT22;44257;44.804;10.220;2022-12-18T05:09:31;4.60;99.90
58469;DHT22;44257;44.804;10.220;2022-12-18T05:11:57;4.60;99.90
58469;DHT22;44257;44.804;10.220;2022-12-18T05:14:23;4.60;99.90
58469;DHT22;44257;44.804;10.220;2022-12-18T05:16:48;4.60;99.90
58469;DHT22;44257;44.804;10.220;2022-12-18T05:19:14;4.60;99.90
58469;DHT22;44257;44.804;10.220;2022-12-18T05:21:40;4.60;99.90
58469;DHT22;44257;44.804;10.220;2022-12-18T05:24:06;4.60;99.90
58469;DHT22;44257;44.804;10.220;2022-12-18T05:26:32;4.60;99.90
58469;DHT22;44257;44.804;10.220;2022-12-18T05:28:57;4.60;99.90
58469;DHT22;44257;44.804;10.220;2022-12-18T05:31:23;4.70;99.90
58469;DHT22;44257;44.804;10.220;2022-12-18T05:33:49;4.70;99.90
58469;DHT22;44257;44.804;10.220;2022-12-18T05:36:15;4.60;99.90
58469;DHT22;44257;44.804;10.220;2022-12-18T05:38:41;4.60;99.90
58469;DHT22;44257;44.804;10.220;2022-12-18T05:41:07;4.60;99.90
58469;DHT22;44257;44.804;10.220;2022-12-18T05:43:37;4.70;99.90
58469;DHT22;44257;44.804;10.220;2022-12-18T05:46:08;4.70;99.90
58469;DHT22;44257;44.804;10.220;2022-12-18T05:48:35;4.60;99.90
58469;DHT22;44257;44.804;10.220;2022-12-18T05:51:06;4.60;99.90
58469;DHT22;44257;44.804;10.220;2022-12-18T05:53:33;4.50;99.90
58469;DHT22;44257;44.804;10.220;2022-12-18T05:56:01;4.50;99.90
58469;DHT22;44257;44.804;10.220;2022-12-18T05:58:27;4.60;99.90
58469;DHT22;44257;44.804;10.220;2022-12-18T06:00:53;4.60;99.90
58469;DHT22;44257;44.804;10.220;2022-12-18T06:03:18;4.60;99.90
58469;DHT22;44257;44.804;10.220;2022-12-18T06:05:45;4.60;99.90
58469;DHT22;44257;44.804;10.220;2022-12-18T06:08:12;4.70;99.90
58469;DHT22;44257;44.804;10.220;2022-12-18T06:10:38;4.70;99.90
58469;DHT22;44257;44.804;10.220;2022-12-18T06:13:05;4.80;99.90
58469;DHT22;44257;44.804;10.220;2022-12-18T06:15:31;4.80;99.90
58469;DHT22;44257;44.804;10.220;2022-12-18T06:17:57;4.80;99.90
58469;DHT22;44257;44.804;10.220;2022-12-18T06:20:23;4.90;99.90
58469;DHT22;44257;44.804;10.220;2022-12-18T06:22:49;4.90;99.90
58469;DHT22;44257;44.804;10.220;2022-12-18T06:25:15;4.90;99.90
58469;DHT22;44257;44.804;10.220;2022-12-18T06:27:41;4.90;99.90
58469;DHT22;44257;44.804;10.220;2022-12-18T06:30:08;4.90;99.90
58469;DHT22;44257;44.804;10.220;2022-12-18T06:32:34;4.90;99.90
58469;DHT22;44257;44.804;10.220;2022-12-18T06:35:00;4.90;99.90
58469;DHT22;44257;44.804;10.220;2022-12-18T06:37:26;4.90;99.90
58469;DHT22;44257;44.804;10.220;2022-12-18T06:39:54;4.90;99.90
58469;DHT22;44257;44.804;10.220;2022-12-18T06:42:22;4.90;99.90
58469;DHT22;44257;44.804;10.220;2022-12-18T06:44:48;4.90;99.90
58469;DHT22;44257;44.804;10.220;2022-12-18T06:47:14;4.90;99.90
58469;DHT22;44257;44.804;10.220;2022-12-18T06:49:39;4.80;99.90
58469;DHT22;44257;44.804;10.220;2022-12-18T06:52:05;4.80;99.90
58469;DHT22;44257;44.804;10.220;2022-12-18T06:54:31;4.80;99.90
58469;DHT22;44257;44.804;10.220;2022-12-18T06:56:57;4.90;99.90
58469;DHT22;44257;44.804;10.220;2022-12-18T06:59:23;4.90;99.90
58469;DHT22;44257;44.804;10.220;2022-12-18T07:01:49;4.90;99.90
58469;DHT22;44257;44.804;10.220;2022-12-18T07:04:16;4.90;99.90
58469;DHT22;44257;44.804;10.220;2022-12-18T07:06:42;4.90;99.90
58469;DHT22;44257;44.804;10.220;2022-12-18T07:09:08;4.90;99.90
58469;DHT22;44257;44.804;10.220;2022-12-18T07:11:34;4.90;99.90
58469;DHT22;44257;44.804;10.220;2022-12-18T07:14:00;4.90;99.90
58469;DHT22;44257;44.804;10.220;2022-12-18T07:16:27;4.90;99.90
58469;DHT22;44257;44.804;10.220;2022-12-18T07:18:55;4.90;99.90
58469;DHT22;44257;44.804;10.220;2022-12-18T07:21:23;4.90;99.90
58469;DHT22;44257;44.804;10.220;2022-12-18T07:23:49;4.90;99.90
58469;DHT22;44257;44.804;10.220;2022-12-18T07:26:17;4.90;99.90
58469;DHT22;44257;44.804;10.220;2022-12-18T07:28:44;4.80;99.90
58469;DHT22;44257;44.804;10.220;2022-12-18T07:31:13;4.90;99.90
58469;DHT22;44257;44.804;10.220;2022-12-18T07:33:40;4.90;99.90
58469;DHT22;44257;44.804;10.220;2022-12-18T07:36:07;4.90;99.90
58469;DHT22;44257;44.804;10.220;2022-12-18T07:38:34;4.80;99.90
58469;DHT22;44257;44.804;10.220;2022-12-18T07:41:05;4.80;99.90
58469;DHT22;44257;44.804;10.220;2022-12-18T07:43:31;4.80;99.90
58469;DHT22;44257;44.804;10.220;2022-12-18T07:45:57;4.90;99.90
58469;DHT22;44257;44.804;10.220;2022-12-18T07:48:23;4.90;99.90
58469;DHT22;44257;44.804;10.220;2022-12-18T07:50:49;4.90;99.90
58469;DHT22;44257;44.804;10.220;2022-12-18T07:53:14;4.90;99.90
58469;DHT22;44257;44.804;10.220;2022-12-18T07:55:43;4.90;99.90
58469;DHT22;44257;44.804;10.220;2022-12-18T07:58:10;5.00;99.90
58469;DHT22;44257;44.804;10.220;2022-12-18T08:00:35;5.00;99.90
58469;DHT22;44257;44.804;10.220;2022-12-18T08:03:02;5.00;99.90
58469;DHT22;44257;44.804;10.220;2022-12-18T08:05:28;5.10;99.90
58469;DHT22;44257;44.804;10.220;2022-12-18T08:07:54;5.10;99.90
58469;DHT22;44257;44.804;10.220;2022-12-18T08:10:20;5.20;99.90
58469;DHT22;44257;44.804;10.220;2022-12-18T08:12:51;5.20;99.90
58469;DHT22;44257;44.804;10.220;2022-12-18T08:15:17;5.20;99.90
58469;DHT22;44257;44.804;10.220;2022-12-18T08:17:43;5.20;99.90
58469;DHT22;44257;44.804;10.220;2022-12-18T08:20:09;5.20;99.90
58469;DHT22;44257;44.804;10.220;2022-12-18T08:22:35;5.20;99.90
58469;DHT22;44257;44.804;10.220;2022-12-18T08:25:02;5.20;99.90
58469;DHT22;44257;44.804;10.220;2022-12-18T08:27:28;5.20;99.90
58469;DHT22;44257;44.804;10.220;2022-12-18T08:29:54;5.30;99.90
58469;DHT22;44257;44.804;10.220;2022-12-18T08:32:20;5.30;99.90
58469;DHT22;44257;44.804;10.220;2022-12-18T08:34:46;5.30;99.90
58469;DHT22;44257;44.804;10.220;2022-12-18T08:37:12;5.30;99.90
58469;DHT22;44257;44.804;10.220;2022-12-18T08:39:37;5.30;99.90
58469;DHT22;44257;44.804;10.220;2022-12-18T08:42:03;5.30;99.90
58469;DHT22;44257;44.804;10.220;2022-12-18T08:44:47;5.40;99.90
58469;DHT22;44257;44.804;10.220;2022-12-18T08:47:13;5.50;99.90
58469;DHT22;44257;44.804;10.220;2022-12-18T08:49:39;5.60;99.90
58469;DHT22;44257;44.804;10.220;2022-12-18T08:52:06;5.60;99.90
58469;DHT22;44257;44.804;10.220;2022-12-18T08:54:31;5.60;99.90
58469;DHT22;44257;44.804;10.220;2022-12-18T08:56:57;5.70;99.90
58469;DHT22;44257;44.804;10.220;2022-12-18T08:59:23;5.70;99.90
58469;DHT22;44257;44.804;10.220;2022-12-18T09:01:49;5.70;99.90
58469;DHT22;44257;44.804;10.220;2022-12-18T09:04:15;5.70;99.90
58469;DHT22;44257;44.804;10.220;2022-12-18T09:06:41;5.80;99.90
58469;DHT22;44257;44.804;10.220;2022-12-18T09:09:08;5.70;99.90
58469;DHT22;44257;44.804;10.220;2022-12-18T09:11:34;5.70;99.90
58469;DHT22;44257;44.804;10.220;2022-12-18T09:14:01;5.70;99.90
58469;DHT22;44257;44.804;10.220;2022-12-18T09:16:27;5.70;99.90
58469;DHT22;44257;44.804;10.220;2022-12-18T09:18:57;5.70;99.90
58469;DHT22;44257;44.804;10.220;2022-12-18T09:21:32;5.80;99.90
58469;DHT22;44257;44.804;10.220;2022-12-18T09:23:59;5.90;99.90
58469;DHT22;44257;44.804;10.220;2022-12-18T09:26:26;5.80;99.90
58469;DHT22;44257;44.804;10.220;2022-12-18T09:28:52;5.90;99.90
58469;DHT22;44257;44.804;10.220;2022-12-18T09:31:20;5.90;99.90
58469;DHT22;44257;44.804;10.220;2022-12-18T09:33:47;5.90;99.90
58469;DHT22;44257;44.804;10.220;2022-12-18T09:36:15;5.80;99.90
58469;DHT22;44257;44.804;10.220;2022-12-18T09:38:41;5.80;99.90
58469;DHT22;44257;44.804;10.220;2022-12-18T09:41:18;5.80;99.90
58469;DHT22;44257;44.804;10.220;2022-12-18T09:43:53;5.80;99.90
58469;DHT22;44257;44.804;10.220;2022-12-18T09:46:30;5.80;99.90
58469;DHT22;44257;44.804;10.220;2022-12-18T09:49:05;5.80;99.90
58469;DHT22;44257;44.804;10.220;2022-12-18T09:51:44;5.80;99.90
58469;DHT22;44257;44.804;10.220;2022-12-18T09:54:21;5.80;99.90
58469;DHT22;44257;44.804;10.220;2022-12-18T09:56:48;5.90;99.90
58469;DHT22;44257;44.804;10.220;2022-12-18T09:59:51;6.00;99.90
58469;DHT22;44257;44.804;10.220;2022-12-18T10:02:25;6.00;99.90
58469;DHT22;44257;44.804;10.220;2022-12-18T10:08:02;6.10;99.90
58469;DHT22;44257;44.804;10.220;2022-12-18T10:10:53;6.00;99.90
58469;DHT22;44257;44.804;10.220;2022-12-18T10:16:23;6.20;99.90
58469;DHT22;44257;44.804;10.220;2022-12-18T10:19:18;6.30;99.90
58469;DHT22;44257;44.804;10.220;2022-12-18T10:24:59;6.40;99.90
58469;DHT22;44257;44.804;10.220;2022-12-18T10:27:27;6.60;99.90
58469;DHT22;44257;44.804;10.220;2022-12-18T10:29:54;6.70;99.90
58469;DHT22;44257;44.804;10.220;2022-12-18T10:32:29;6.70;99.90
58469;DHT22;44257;44.804;10.220;2022-12-18T10:34:57;6.70;99.90
58469;DHT22;44257;44.804;10.220;2022-12-18T10:37:26;6.80;99.90
58469;DHT22;44257;44.804;10.220;2022-12-18T10:40:12;6.70;99.90
58469;DHT22;44257;44.804;10.220;2022-12-18T10:42:39;6.70;99.90
58469;DHT22;44257;44.804;10.220;2022-12-18T10:45:16;6.70;99.90
58469;DHT22;44257;44.804;10.220;2022-12-18T10:47:49;6.70;99.90
58469;DHT22;44257;44.804;10.220;2022-12-18T10:50:33;6.60;99.90
58469;DHT22;44257;44.804;10.220;2022-12-18T10:53:02;6.70;99.90
58469;DHT22;44257;44.804;10.220;2022-12-18T10:55:39;6.90;99.90
58469;DHT22;44257;44.804;10.220;2022-12-18T11:01:12;7.10;99.90
58469;DHT22;44257;44.804;10.220;2022-12-18T11:03:45;7.20;99.90
58469;DHT22;44257;44.804;10.220;2022-12-18T11:06:12;7.10;99.90
58469;DHT22;44257;44.804;10.220;2022-12-18T11:08:38;7.00;99.90
58469;DHT22;44257;44.804;10.220;2022-12-18T11:11:15;7.00;99.90
58469;DHT22;44257;44.804;10.220;2022-12-18T11:14:41;6.90;99.90
58469;DHT22;44257;44.804;10.220;2022-12-18T11:16:44;6.90;99.90
58469;DHT22;44257;44.804;10.220;2022-12-18T11:21:51;7.00;99.90
58469;DHT22;44257;44.804;10.220;2022-12-18T11:24:28;7.00;99.90
58469;DHT22;44257;44.804;10.220;2022-12-18T11:26:57;7.00;99.90
58469;DHT22;44257;44.804;10.220;2022-12-18T11:29:35;7.10;99.90
58469;DHT22;44257;44.804;10.220;2022-12-18T11:32:36;7.20;99.90
58469;DHT22;44257;44.804;10.220;2022-12-18T11:37:53;7.60;99.90
58469;DHT22;44257;44.804;10.220;2022-12-18T11:40:32;7.60;99.90
58469;DHT22;44257;44.804;10.220;2022-12-18T11:43:29;7.50;99.90
58469;DHT22;44257;44.804;10.220;2022-12-18T11:46:07;7.50;99.90
58469;DHT22;44257;44.804;10.220;2022-12-18T11:48:44;7.50;99.90
58469;DHT22;44257;44.804;10.220;2022-12-18T11:51:15;7.50;99.90
58469;DHT22;44257;44.804;10.220;2022-12-18T11:53:45;7.50;99.90
58469;DHT22;44257;44.804;10.220;2022-12-18T11:59:13;7.30;99.90
58469;DHT22;44257;44.804;10.220;2022-12-18T12:10:31;7.20;99.90
58469;DHT22;44257;44.804;10.220;2022-12-18T12:12:55;7.20;99.90
58469;DHT22;44257;44.804;10.220;2022-12-18T12:15:39;7.10;99.90
58469;DHT22;44257;44.804;10.220;2022-12-18T12:21:07;6.70;99.90
58469;DHT22;44257;44.804;10.220;2022-12-18T12:24:06;6.60;99.90
58469;DHT22;44257;44.804;10.220;2022-12-18T12:27:32;6.50;99.90
58469;DHT22;44257;44.804;10.220;2022-12-18T12:30:03;6.50;99.90
58469;DHT22;44257;44.804;10.220;2022-12-18T12:40:13;6.60;99.90
58469;DHT22;44257;44.804;10.220;2022-12-18T12:42:56;6.60;99.90
58469;DHT22;44257;44.804;10.220;2022-12-18T12:48:40;6.80;99.90
58469;DHT22;44257;44.804;10.220;2022-12-18T12:51:12;6.80;99.90
58469;DHT22;44257;44.804;10.220;2022-12-18T12:53:39;6.90;99.90
58469;DHT22;44257;44.804;10.220;2022-12-18T12:56:09;7.10;99.90
58469;DHT22;44257;44.804;10.220;2022-12-18T12:58:46;7.20;99.90
58469;DHT22;44257;44.804;10.220;2022-12-18T13:04:15;7.20;99.90
58469;DHT22;44257;44.804;10.220;2022-12-18T13:07:15;7.30;99.90
58469;DHT22;44257;44.804;10.220;2022-12-18T13:13:14;7.40;99.90
58469;DHT22;44257;44.804;10.220;2022-12-18T13:15:47;7.40;99.90
58469;DHT22;44257;44.804;10.220;2022-12-18T13:25:57;7.60;99.90
58469;DHT22;44257;44.804;10.220;2022-12-18T13:30:51;7.70;99.90
58469;DHT22;44257;44.804;10.220;2022-12-18T13:41:44;7.80;99.90
58469;DHT22;44257;44.804;10.220;2022-12-18T13:43:47;7.70;99.90
58469;DHT22;44257;44.804;10.220;2022-12-18T13:48:55;7.60;99.90
58469;DHT22;44257;44.804;10.220;2022-12-18T13:51:23;7.60;99.90
58469;DHT22;44257;44.804;10.220;2022-12-18T13:54:19;7.50;99.90
58469;DHT22;44257;44.804;10.220;2022-12-18T13:56:48;7.50;99.90
58469;DHT22;44257;44.804;10.220;2022-12-18T13:59:26;7.40;99.90
58469;DHT22;44257;44.804;10.220;2022-12-18T14:01:54;7.40;99.90
58469;DHT22;44257;44.804;10.220;2022-12-18T14:06:50;7.40;99.90
58469;DHT22;44257;44.804;10.220;2022-12-18T14:09:29;7.40;99.90
58469;DHT22;44257;44.804;10.220;2022-12-18T14:11:56;7.40;99.90
58469;DHT22;44257;44.804;10.220;2022-12-18T14:14:45;7.40;99.90
58469;DHT22;44257;44.804;10.220;2022-12-18T14:17:13;7.30;99.90
58469;DHT22;44257;44.804;10.220;2022-12-18T14:19:48;7.30;99.90
58469;DHT22;44257;44.804;10.220;2022-12-18T14:22:24;7.30;99.90
58469;DHT22;44257;44.804;10.220;2022-12-18T14:25:19;7.40;99.90
58469;DHT22;44257;44.804;10.220;2022-12-18T14:27:48;7.30;99.90
58469;DHT22;44257;44.804;10.220;2022-12-18T14:33:26;7.10;99.90
58469;DHT22;44257;44.804;10.220;2022-12-18T14:36:04;7.00;99.90
58469;DHT22;44257;44.804;10.220;2022-12-18T14:41:00;6.90;99.90
58469;DHT22;44257;44.804;10.220;2022-12-18T14:43:28;6.80;99.90
58469;DHT22;44257;44.804;10.220;2022-12-18T14:45:55;6.70;99.90
58469;DHT22;44257;44.804;10.220;2022-12-18T14:48:37;6.60;99.90
58469;DHT22;44257;44.804;10.220;2022-12-18T14:53:42;6.30;99.90
58469;DHT22;44257;44.804;10.220;2022-12-18T14:56:17;6.20;99.90
58469;DHT22;44257;44.804;10.220;2022-12-18T14:58:50;6.20;99.90
58469;DHT22;44257;44.804;10.220;2022-12-18T15:01:29;6.10;99.90
58469;DHT22;44257;44.804;10.220;2022-12-18T15:03:57;6.00;99.90
58469;DHT22;44257;44.804;10.220;2022-12-18T15:08:59;5.90;99.90
58469;DHT22;44257;44.804;10.220;2022-12-18T15:11:31;5.90;99.90
58469;DHT22;44257;44.804;10.220;2022-12-18T15:13:58;5.80;99.90
58469;DHT22;44257;44.804;10.220;2022-12-18T15:16:25;5.80;99.90
58469;DHT22;44257;44.804;10.220;2022-12-18T15:18:51;5.70;99.90
58469;DHT22;44257;44.804;10.220;2022-12-18T15:21:19;5.60;99.90
58469;DHT22;44257;44.804;10.220;2022-12-18T15:23:52;5.50;99.90
58469;DHT22;44257;44.804;10.220;2022-12-18T15:26:20;5.40;99.90
58469;DHT22;44257;44.804;10.220;2022-12-18T15:28:50;5.30;99.90
58469;DHT22;44257;44.804;10.220;2022-12-18T15:33:59;5.20;99.90
58469;DHT22;44257;44.804;10.220;2022-12-18T15:36:26;5.10;99.90
58469;DHT22;44257;44.804;10.220;2022-12-18T15:38:53;5.00;99.90
58469;DHT22;44257;44.804;10.220;2022-12-18T15:41:21;5.00;99.90
58469;DHT22;44257;44.804;10.220;2022-12-18T15:43:49;5.00;99.90
58469;DHT22;44257;44.804;10.220;2022-12-18T15:46:16;4.90;99.90
58469;DHT22;44257;44.804;10.220;2022-12-18T15:48:48;4.80;99.90
58469;DHT22;44257;44.804;10.220;2022-12-18T15:53:48;4.80;99.90
58469;DHT22;44257;44.804;10.220;2022-12-18T15:56:16;4.70;99.90
58469;DHT22;44257;44.804;10.220;2022-12-18T15:59:01;4.70;99.90
58469;DHT22;44257;44.804;10.220;2022-12-18T16:01:29;4.60;99.90
58469;DHT22;44257;44.804;10.220;2022-12-18T16:03:56;4.60;99.90
58469;DHT22;44257;44.804;10.220;2022-12-18T16:06:23;4.60;99.90
58469;DHT22;44257;44.804;10.220;2022-12-18T16:08:49;4.50;99.90
58469;DHT22;44257;44.804;10.220;2022-12-18T16:11:25;4.40;99.90
58469;DHT22;44257;44.804;10.220;2022-12-18T16:16:46;4.20;99.90
58469;DHT22;44257;44.804;10.220;2022-12-18T16:19:12;4.10;99.90
58469;DHT22;44257;44.804;10.220;2022-12-18T16:21:38;4.10;99.90
58469;DHT22;44257;44.804;10.220;2022-12-18T16:24:04;4.00;99.90
58469;DHT22;44257;44.804;10.220;2022-12-18T16:26:31;4.00;99.90
58469;DHT22;44257;44.804;10.220;2022-12-18T16:28:56;3.90;99.90
58469;DHT22;44257;44.804;10.220;2022-12-18T16:31:22;3.90;99.90
58469;DHT22;44257;44.804;10.220;2022-12-18T16:33:48;3.80;99.90
58469;DHT22;44257;44.804;10.220;2022-12-18T16:36:14;3.80;99.90
58469;DHT22;44257;44.804;10.220;2022-12-18T16:38:40;3.80;99.90
58469;DHT22;44257;44.804;10.220;2022-12-18T16:41:18;3.70;99.90
58469;DHT22;44257;44.804;10.220;2022-12-18T16:43:59;3.60;99.90
58469;DHT22;44257;44.804;10.220;2022-12-18T16:46:25;3.70;99.90
58469;DHT22;44257;44.804;10.220;2022-12-18T16:48:51;3.70;99.90
58469;DHT22;44257;44.804;10.220;2022-12-18T16:51:17;3.60;99.90
58469;DHT22;44257;44.804;10.220;2022-12-18T16:53:43;3.60;99.90
58469;DHT22;44257;44.804;10.220;2022-12-18T16:56:09;3.70;99.90
58469;DHT22;44257;44.804;10.220;2022-12-18T16:58:35;3.70;99.90
58469;DHT22;44257;44.804;10.220;2022-12-18T17:01:06;3.80;99.90
58469;DHT22;44257;44.804;10.220;2022-12-18T17:03:32;3.80;99.90
58469;DHT22;44257;44.804;10.220;2022-12-18T17:06:04;3.90;99.90
58469;DHT22;44257;44.804;10.220;2022-12-18T17:08:31;4.00;99.90
58469;DHT22;44257;44.804;10.220;2022-12-18T17:11:06;4.00;99.90
58469;DHT22;44257;44.804;10.220;2022-12-18T17:13:32;4.10;99.90
58469;DHT22;44257;44.804;10.220;2022-12-18T17:16:03;4.20;99.90
58469;DHT22;44257;44.804;10.220;2022-12-18T17:18:29;4.20;99.90
58469;DHT22;44257;44.804;10.220;2022-12-18T17:21:03;4.30;99.90
58469;DHT22;44257;44.804;10.220;2022-12-18T17:23:30;4.30;99.90
58469;DHT22;44257;44.804;10.220;2022-12-18T17:25:58;4.40;99.90
58469;DHT22;44257;44.804;10.220;2022-12-18T17:28:25;4.50;99.90
58469;DHT22;44257;44.804;10.220;2022-12-18T17:30:52;4.60;99.90
58469;DHT22;44257;44.804;10.220;2022-12-18T17:33:19;4.60;99.90
58469;DHT22;44257;44.804;10.220;2022-12-18T17:35:45;4.60;99.90
58469;DHT22;44257;44.804;10.220;2022-12-18T17:38:11;4.70;99.90
58469;DHT22;44257;44.804;10.220;2022-12-18T17:40:37;4.70;99.90
58469;DHT22;44257;44.804;10.220;2022-12-18T17:43:03;4.70;99.90
58469;DHT22;44257;44.804;10.220;2022-12-18T17:45:29;4.70;99.90
58469;DHT22;44257;44.804;10.220;2022-12-18T17:47:55;4.70;99.90
58469;DHT22;44257;44.804;10.220;2022-12-18T17:50:20;4.70;99.90